createdAt,value
2023-05-22T00:02:18.296Z,28.10
2023-05-22T00:04:48.563Z,28.20
2023-05-22T00:07:18.676Z,28.20
2023-05-22T00:09:48.528Z,28.30
2023-05-22T00:12:18.265Z,28.30
2023-05-22T00:14:47.834Z,28.40
2023-05-22T00:17:18.353Z,28.40
2023-05-22T00:19:48.216Z,28.40
2023-05-22T00:22:17.978Z,28.40
2023-05-22T00:24:47.887Z,28.50
2023-05-22T00:27:17.601Z,28.50
2023-05-22T00:29:47.286Z,28.60
2023-05-22T00:32:17.002Z,28.60
2023-05-22T00:34:46.803Z,28.60
2023-05-22T00:37:16.601Z,28.70
2023-05-22T00:39:46.346Z,28.70
2023-05-22T00:42:16.340Z,28.80
2023-05-22T00:44:46.201Z,28.80
2023-05-22T00:47:15.870Z,28.90
2023-05-22T00:49:46.189Z,29.00
2023-05-22T00:52:16.894Z,29.00
2023-05-22T00:54:46.833Z,29.10
2023-05-22T00:57:16.469Z,29.10
2023-05-22T00:59:46.880Z,29.20
2023-05-22T01:02:18.243Z,29.20
2023-05-22T01:04:52.463Z,29.30
2023-05-22T01:07:23.282Z,29.30
2023-05-22T01:09:54.463Z,29.40
2023-05-22T01:13:03.733Z,29.50
2023-05-22T01:16:12.987Z,29.50
2023-05-22T01:19:06.303Z,29.60
2023-05-22T01:22:00.546Z,29.60
2023-05-22T01:24:55.493Z,29.70
2023-05-22T01:28:04.445Z,29.70
2023-05-22T01:31:13.393Z,29.80
2023-05-22T01:33:53.262Z,29.90
2023-05-22T01:36:26.356Z,30.00
2023-05-22T01:38:56.533Z,30.00
2023-05-22T01:41:26.622Z,30.10
2023-05-22T01:43:56.612Z,30.10
2023-05-22T01:46:31.057Z,30.20
2023-05-22T01:49:01.132Z,30.20
2023-05-22T01:52:01.107Z,30.30
2023-05-22T01:54:44.079Z,30.40
2023-05-22T01:57:44.887Z,30.50
2023-05-22T02:00:20.203Z,30.50
2023-05-22T02:03:00.038Z,30.60
2023-05-22T02:05:37.434Z,30.70
2023-05-22T02:08:07.912Z,30.80
2023-05-22T02:10:39.669Z,30.80
2023-05-22T02:13:10.231Z,30.90
2023-05-22T02:15:40.500Z,31.00
2023-05-22T02:18:14.945Z,31.10
2023-05-22T02:20:44.793Z,31.10
2023-05-22T02:23:14.607Z,31.10
2023-05-22T02:25:44.513Z,31.20
2023-05-22T02:28:14.433Z,31.30
2023-05-22T02:30:44.069Z,31.30
2023-05-22T02:33:14.068Z,31.40
2023-05-22T02:35:43.708Z,31.50
2023-05-22T02:38:13.992Z,31.60
2023-05-22T02:40:43.660Z,31.60
2023-05-22T02:43:13.473Z,31.70
2023-05-22T02:45:43.229Z,31.70
2023-05-22T02:48:13.140Z,31.80
2023-05-22T02:50:43.089Z,31.90
2023-05-22T02:53:12.965Z,32.00
2023-05-22T02:55:43.476Z,32.10
2023-05-22T02:58:14.468Z,32.10
2023-05-22T03:00:45.052Z,32.20
2023-05-22T03:03:14.872Z,32.30
2023-05-22T03:05:45.054Z,32.40
2023-05-22T03:08:17.046Z,32.40
2023-05-22T03:10:47.005Z,32.50
2023-05-22T03:13:16.731Z,32.60
2023-05-22T03:15:46.677Z,32.60
2023-05-22T03:18:16.421Z,32.70
2023-05-22T03:20:46.048Z,32.80
2023-05-22T03:23:15.992Z,32.80
2023-05-22T03:25:45.930Z,32.90
2023-05-22T03:28:16.580Z,32.90
2023-05-22T03:30:46.349Z,33.00
2023-05-22T03:33:16.200Z,33.10
2023-05-22T03:35:46.351Z,33.10
2023-05-22T03:38:16.069Z,33.20
2023-05-22T03:40:45.703Z,33.30
2023-05-22T03:43:15.761Z,33.40
2023-05-22T03:45:45.625Z,33.40
2023-05-22T03:48:17.923Z,33.50
2023-05-22T03:50:47.763Z,33.50
2023-05-22T03:53:17.525Z,33.50
2023-05-22T03:55:47.105Z,33.60
2023-05-22T03:58:17.050Z,33.70
2023-05-22T04:00:48.099Z,33.70
2023-05-22T04:03:21.297Z,33.80
2023-05-22T04:05:51.143Z,33.90
2023-05-22T04:08:21.298Z,34.00
2023-05-22T04:10:51.374Z,34.00
2023-05-22T04:13:21.487Z,34.10
2023-05-22T04:15:51.950Z,34.10
2023-05-22T04:18:21.880Z,34.10
2023-05-22T04:20:53.555Z,34.20
2023-05-22T04:23:23.615Z,34.20
2023-05-22T04:25:53.845Z,34.20
2023-05-22T04:28:28.419Z,34.30
2023-05-22T04:30:59.291Z,34.40
2023-05-22T04:33:30.722Z,34.40
2023-05-22T04:36:00.491Z,34.50
2023-05-22T04:38:30.551Z,34.60
2023-05-22T04:41:00.277Z,34.70
2023-05-22T04:43:31.678Z,34.70
2023-05-22T04:46:01.526Z,34.80
2023-05-22T04:48:32.197Z,34.90
2023-05-22T04:51:04.227Z,34.90
2023-05-22T04:53:35.148Z,35.00
2023-05-22T04:56:05.047Z,35.00
2023-05-22T04:58:35.154Z,35.00
2023-05-22T05:01:05.252Z,35.10
2023-05-22T05:03:35.630Z,35.10
2023-05-22T05:06:05.553Z,35.10
2023-05-22T05:08:35.278Z,35.10
2023-05-22T05:11:05.242Z,35.20
2023-05-22T05:13:35.068Z,35.20
2023-05-22T05:16:05.635Z,35.20
2023-05-22T05:18:35.202Z,35.30
2023-05-22T05:21:04.997Z,35.40
2023-05-22T05:23:34.882Z,35.40
2023-05-22T05:26:04.760Z,35.40
2023-05-22T05:28:37.692Z,35.50
2023-05-22T05:31:07.468Z,35.50
2023-05-22T05:33:37.398Z,35.50
2023-05-22T05:36:07.590Z,35.60
2023-05-22T05:38:37.431Z,35.60
2023-05-22T05:41:07.745Z,35.60
2023-05-22T05:43:37.592Z,35.60
2023-05-22T05:46:07.962Z,35.70
2023-05-22T05:48:37.682Z,35.70
2023-05-22T05:51:07.674Z,35.70
2023-05-22T05:53:38.828Z,35.80
2023-05-22T05:56:09.763Z,35.70
2023-05-22T05:58:40.027Z,35.80
2023-05-22T06:01:10.108Z,35.90
2023-05-22T06:03:40.229Z,35.90
2023-05-22T06:06:10.285Z,36.00
2023-05-22T06:08:40.334Z,36.00
2023-05-22T06:11:11.125Z,36.00
2023-05-22T06:13:40.920Z,36.00
2023-05-22T06:16:10.958Z,36.10
2023-05-22T06:18:40.941Z,36.20
2023-05-22T06:21:10.725Z,36.20
2023-05-22T06:23:40.770Z,36.20
2023-05-22T06:26:10.906Z,36.20
2023-05-22T06:28:40.771Z,36.20
2023-05-22T06:31:13.783Z,36.20
2023-05-22T06:33:44.899Z,36.20
2023-05-22T06:36:14.825Z,36.20
2023-05-22T06:38:45.296Z,36.20
2023-05-22T06:41:15.070Z,36.20
2023-05-22T06:43:44.808Z,36.20
2023-05-22T06:46:14.783Z,36.30
2023-05-22T06:48:44.588Z,36.30
2023-05-22T06:51:16.784Z,36.40
2023-05-22T06:53:47.923Z,36.40
2023-05-22T06:56:18.150Z,36.50
2023-05-22T06:58:48.133Z,36.40
2023-05-22T07:01:18.294Z,36.40
2023-05-22T07:03:48.109Z,36.30
2023-05-22T07:06:17.872Z,36.30
2023-05-22T07:08:48.206Z,36.20
2023-05-22T07:11:18.874Z,36.10
2023-05-22T07:13:48.835Z,35.90
2023-05-22T07:16:18.545Z,35.60
2023-05-22T07:18:48.481Z,35.20
2023-05-22T07:21:18.354Z,34.90
2023-05-22T07:23:48.152Z,34.40
2023-05-22T07:26:18.175Z,33.90
2023-05-22T07:28:47.958Z,33.30
2023-05-22T07:31:18.243Z,32.70
2023-05-22T07:33:48.145Z,32.20
2023-05-22T07:36:19.302Z,31.70
2023-05-22T07:38:48.975Z,31.30
2023-05-22T07:41:18.708Z,31.00
2023-05-22T07:43:48.500Z,30.80
2023-05-22T07:46:18.488Z,30.60
2023-05-22T07:48:48.584Z,30.30
2023-05-22T07:51:18.514Z,29.90
2023-05-22T07:53:48.272Z,29.50
2023-05-22T07:56:19.409Z,29.00
2023-05-22T07:58:50.240Z,28.50
2023-05-22T08:01:20.087Z,28.30
2023-05-22T08:03:50.212Z,28.10
2023-05-22T08:06:20.121Z,27.90
2023-05-22T08:08:50.022Z,27.90
2023-05-22T08:11:19.865Z,27.70
2023-05-22T08:13:50.314Z,27.60
2023-05-22T08:16:20.252Z,27.40
2023-05-22T08:18:50.074Z,27.30
2023-05-22T08:21:20.443Z,27.10
2023-05-22T08:23:50.201Z,27.00
2023-05-22T08:26:19.956Z,27.10
2023-05-22T08:28:50.007Z,27.20
2023-05-22T08:31:20.615Z,27.30
2023-05-22T08:33:51.216Z,27.40
2023-05-22T08:36:22.322Z,27.40
2023-05-22T08:38:52.784Z,27.50
2023-05-22T08:41:23.765Z,27.60
2023-05-22T08:43:54.291Z,27.70
2023-05-22T08:46:30.972Z,27.70
2023-05-22T08:49:04.921Z,27.70
2023-05-22T08:51:40.112Z,27.60
2023-05-22T08:54:11.792Z,27.60
2023-05-22T08:56:52.853Z,27.60
2023-05-22T08:59:30.147Z,27.60
2023-05-22T09:02:03.798Z,27.70
2023-05-22T09:04:42.694Z,27.70
2023-05-22T09:07:13.588Z,27.70
2023-05-22T09:09:44.583Z,27.80
2023-05-22T09:12:15.974Z,27.80
2023-05-22T09:14:47.613Z,27.80
2023-05-22T09:17:22.920Z,27.80
2023-05-22T09:19:56.477Z,27.90
2023-05-22T09:22:37.066Z,27.90
2023-05-22T09:25:08.843Z,28.00
2023-05-22T09:27:39.086Z,28.00
2023-05-22T09:30:13.045Z,28.10
2023-05-22T09:32:43.458Z,28.10
2023-05-22T09:35:13.703Z,28.20
2023-05-22T09:37:44.088Z,28.20
2023-05-22T09:40:18.540Z,28.30
2023-05-22T09:42:48.701Z,28.40
2023-05-22T09:45:26.108Z,28.40
2023-05-22T09:47:56.529Z,28.30
2023-05-22T09:50:26.931Z,28.20
2023-05-22T09:52:57.882Z,28.20
2023-05-22T09:55:29.855Z,28.10
2023-05-22T09:58:01.574Z,28.10
2023-05-22T10:00:32.381Z,28.20
2023-05-22T10:03:14.458Z,28.20
2023-05-22T10:05:49.526Z,28.20
2023-05-22T10:08:31.008Z,28.20
2023-05-22T10:11:01.208Z,28.20
2023-05-22T10:13:32.242Z,28.20
2023-05-22T10:16:05.947Z,28.20
2023-05-22T10:18:36.206Z,28.10
2023-05-22T10:21:06.365Z,28.00
2023-05-22T10:23:37.004Z,28.00
2023-05-22T10:26:08.224Z,28.00
2023-05-22T10:28:44.921Z,28.00
2023-05-22T10:31:44.100Z,28.00
2023-05-22T10:34:20.080Z,28.00
2023-05-22T10:37:29.038Z,28.00
2023-05-22T10:40:11.113Z,28.00
2023-05-22T10:42:41.669Z,28.00
2023-05-22T10:45:12.956Z,28.10
2023-05-22T10:47:43.097Z,28.10
2023-05-22T10:50:14.238Z,28.20
2023-05-22T10:52:44.012Z,28.20
2023-05-22T10:55:14.235Z,28.20
2023-05-22T10:57:44.776Z,28.30
2023-05-22T11:00:18.124Z,28.30
2023-05-22T11:02:48.617Z,28.30
2023-05-22T11:05:36.855Z,28.30
2023-05-22T11:08:44.296Z,28.30
2023-05-22T11:11:15.972Z,28.30
2023-05-22T11:13:46.471Z,28.30
2023-05-22T11:16:19.153Z,28.40
2023-05-22T11:18:49.230Z,28.40
2023-05-22T11:21:19.157Z,28.40
2023-05-22T11:23:49.611Z,28.50
2023-05-22T11:26:27.982Z,28.50
2023-05-22T11:28:58.648Z,28.50
2023-05-22T11:31:29.328Z,28.50
2023-05-22T11:33:59.156Z,28.60
2023-05-22T11:36:31.976Z,28.60
2023-05-22T11:39:02.313Z,28.60
2023-05-22T11:41:38.217Z,28.50
2023-05-22T11:44:11.106Z,28.60
2023-05-22T11:46:42.167Z,28.60
2023-05-22T11:49:14.993Z,28.60
2023-05-22T11:51:45.119Z,28.60
2023-05-22T11:54:15.088Z,28.60
2023-05-22T11:56:45.433Z,28.60
2023-05-22T11:59:15.653Z,28.60
2023-05-22T12:01:45.532Z,28.60
2023-05-22T12:04:15.639Z,28.60
2023-05-22T12:06:46.442Z,28.60
2023-05-22T12:09:16.549Z,28.50
2023-05-22T12:11:52.886Z,28.50
2023-05-22T12:14:31.710Z,28.50
2023-05-22T12:17:02.305Z,28.50
2023-05-22T12:19:32.395Z,28.40
2023-05-22T12:22:02.826Z,28.40
2023-05-22T12:24:47.807Z,28.40
2023-05-22T12:27:18.838Z,28.40
2023-05-22T12:29:48.605Z,28.40
2023-05-22T12:32:20.073Z,28.40
2023-05-22T12:34:52.128Z,28.40
2023-05-22T12:37:30.126Z,28.40
2023-05-22T12:40:00.521Z,28.40
2023-05-22T12:42:31.333Z,28.30
2023-05-22T12:45:02.421Z,28.30
2023-05-22T12:47:32.483Z,28.30
2023-05-22T12:50:02.452Z,28.20
2023-05-22T12:52:32.209Z,28.20
2023-05-22T12:55:02.210Z,28.20
2023-05-22T12:57:32.205Z,28.20
2023-05-22T13:00:02.517Z,28.10
2023-05-22T13:02:32.486Z,28.10
2023-05-22T13:05:02.302Z,28.10
2023-05-22T13:07:33.052Z,28.10
2023-05-22T13:10:02.800Z,28.10
2023-05-22T13:12:36.789Z,28.10
2023-05-22T13:15:07.316Z,28.10
2023-05-22T13:17:37.269Z,28.10
2023-05-22T13:20:07.711Z,28.10
2023-05-22T13:22:37.706Z,28.10
2023-05-22T13:25:08.412Z,28.00
2023-05-22T13:27:38.418Z,28.10
2023-05-22T13:30:09.063Z,28.00
2023-05-22T13:32:38.920Z,28.00
2023-05-22T13:35:09.335Z,28.00
2023-05-22T13:37:39.432Z,28.00
2023-05-22T13:40:10.149Z,27.90
2023-05-22T13:42:40.895Z,27.90
2023-05-22T13:45:11.771Z,27.90
2023-05-22T13:47:42.210Z,27.90
2023-05-22T13:50:12.692Z,27.90
2023-05-22T13:52:42.912Z,27.90
2023-05-22T13:55:12.804Z,27.90
2023-05-22T13:57:42.817Z,27.80
2023-05-22T14:00:13.163Z,27.80
2023-05-22T14:02:43.398Z,27.80
2023-05-22T14:05:13.344Z,27.80
2023-05-22T14:07:43.195Z,27.70
2023-05-22T14:10:13.461Z,27.70
2023-05-22T14:12:43.476Z,27.70
2023-05-22T14:15:15.726Z,27.70
2023-05-22T14:17:45.703Z,27.60
2023-05-22T14:20:15.705Z,27.60
2023-05-22T14:22:56.494Z,27.60
2023-05-22T14:25:28.061Z,27.60
2023-05-22T14:27:58.147Z,27.50
2023-05-22T14:30:28.202Z,27.50
2023-05-22T14:32:58.434Z,27.50
2023-05-22T14:35:28.309Z,27.50
2023-05-22T14:37:58.031Z,27.50
2023-05-22T14:40:27.965Z,27.50
2023-05-22T14:42:57.987Z,27.50
2023-05-22T14:45:27.838Z,27.50
2023-05-22T14:47:57.674Z,27.50
2023-05-22T14:50:29.247Z,27.40
2023-05-22T14:52:59.002Z,27.40
2023-05-22T14:55:29.862Z,27.40
2023-05-22T14:57:59.883Z,27.30
2023-05-22T15:00:30.408Z,27.30
2023-05-22T15:03:00.854Z,27.30
2023-05-22T15:05:31.113Z,27.30
2023-05-22T15:08:00.992Z,27.20
2023-05-22T15:10:30.825Z,27.20
2023-05-22T15:13:00.721Z,27.20
2023-05-22T15:15:30.485Z,27.20
2023-05-22T15:18:04.217Z,27.20
2023-05-22T15:20:34.249Z,27.10
2023-05-22T15:23:05.209Z,27.10
2023-05-22T15:25:38.378Z,27.10
2023-05-22T15:28:09.043Z,27.10
2023-05-22T15:30:40.592Z,27.10
2023-05-22T15:33:10.550Z,27.10
2023-05-22T15:35:40.599Z,27.00
2023-05-22T15:38:14.196Z,27.10
2023-05-22T15:40:44.373Z,27.00
2023-05-22T15:43:14.239Z,27.00
2023-05-22T15:45:45.048Z,27.00
2023-05-22T15:48:14.982Z,27.00
2023-05-22T15:50:45.237Z,26.90
2023-05-22T15:53:15.125Z,27.00
2023-05-22T15:55:44.940Z,26.90
2023-05-22T15:58:14.806Z,27.00
2023-05-22T16:00:44.821Z,26.90
2023-05-22T16:03:15.087Z,26.90
2023-05-22T16:05:47.320Z,27.00
2023-05-22T16:08:18.583Z,26.90
2023-05-22T16:10:48.974Z,26.90
2023-05-22T16:13:20.347Z,26.90
2023-05-22T16:15:50.266Z,27.00
2023-05-22T16:18:22.377Z,27.00
2023-05-22T16:20:53.105Z,27.00
2023-05-22T16:23:22.932Z,27.00
2023-05-22T16:25:52.904Z,27.00
2023-05-22T16:28:22.655Z,27.00
2023-05-22T16:30:52.897Z,27.00
2023-05-22T16:33:22.625Z,27.00
2023-05-22T16:35:52.537Z,27.00
2023-05-22T16:38:22.515Z,27.00
2023-05-22T16:40:52.453Z,27.00
2023-05-22T16:43:22.480Z,27.00
2023-05-22T16:45:53.040Z,27.00
2023-05-22T16:48:23.150Z,27.00
2023-05-22T16:50:53.451Z,27.00
2023-05-22T16:53:23.642Z,27.00
2023-05-22T16:55:53.738Z,27.00
2023-05-22T16:58:23.657Z,27.00
2023-05-22T17:00:53.655Z,27.00
2023-05-22T17:03:23.599Z,27.00
2023-05-22T17:05:53.587Z,27.00
2023-05-22T17:08:23.444Z,27.00
2023-05-22T17:10:53.221Z,27.00
2023-05-22T17:13:23.134Z,26.90
2023-05-22T17:15:56.123Z,26.90
2023-05-22T17:18:25.869Z,26.90
2023-05-22T17:20:57.481Z,26.90
2023-05-22T17:23:27.556Z,26.90
2023-05-22T17:25:57.392Z,26.90
2023-05-22T17:28:27.415Z,26.90
2023-05-22T17:30:58.140Z,26.90
2023-05-22T17:33:28.118Z,26.90
2023-05-22T17:35:58.059Z,26.90
2023-05-22T17:38:28.397Z,26.90
2023-05-22T17:40:58.338Z,26.90
2023-05-22T17:43:28.092Z,26.90
2023-05-22T17:45:57.945Z,26.90
2023-05-22T17:48:28.938Z,26.90
2023-05-22T17:50:58.942Z,26.90
2023-05-22T17:53:28.886Z,26.90
2023-05-22T17:55:58.596Z,26.90
2023-05-22T17:58:28.784Z,26.90
2023-05-22T18:00:58.906Z,26.90
2023-05-22T18:03:32.114Z,27.00
2023-05-22T18:06:01.910Z,26.90
2023-05-22T18:08:31.781Z,26.90
2023-05-22T18:11:01.480Z,26.90
2023-05-22T18:13:31.308Z,26.90
2023-05-22T18:16:03.250Z,26.90
2023-05-22T18:18:33.138Z,26.90
2023-05-22T18:21:03.819Z,26.90
2023-05-22T18:23:33.732Z,26.90
2023-05-22T18:26:03.472Z,26.90
2023-05-22T18:28:33.304Z,26.90
2023-05-22T18:31:03.861Z,26.90
2023-05-22T18:33:35.086Z,26.80
2023-05-22T18:36:06.190Z,26.90
2023-05-22T18:38:36.026Z,26.80
2023-05-22T18:41:05.805Z,26.80
2023-05-22T18:43:35.873Z,26.80
2023-05-22T18:46:05.655Z,26.80
2023-05-22T18:48:35.438Z,26.70
2023-05-22T18:51:05.205Z,26.70
2023-05-22T18:53:35.093Z,26.70
2023-05-22T18:56:04.890Z,26.70
2023-05-22T18:58:34.858Z,26.70
2023-05-22T19:01:04.713Z,26.60
2023-05-22T19:03:34.518Z,26.60
2023-05-22T19:06:04.503Z,26.60
2023-05-22T19:08:36.439Z,26.60
2023-05-22T19:11:06.136Z,26.60
2023-05-22T19:13:35.961Z,26.60
2023-05-22T19:16:06.621Z,26.60
2023-05-22T19:18:36.431Z,26.60
2023-05-22T19:21:06.502Z,26.60
2023-05-22T19:23:36.235Z,26.60
2023-05-22T19:26:06.315Z,26.60
2023-05-22T19:28:36.159Z,26.60
2023-05-22T19:31:06.127Z,26.60
2023-05-22T19:33:35.870Z,26.60
2023-05-22T19:36:08.216Z,26.60
2023-05-22T19:38:37.974Z,26.60
2023-05-22T19:41:07.819Z,26.60
2023-05-22T19:43:37.629Z,26.60
2023-05-22T19:46:09.015Z,26.60
2023-05-22T19:48:39.142Z,26.60
2023-05-22T19:51:10.426Z,26.60
2023-05-22T19:53:40.317Z,26.60
2023-05-22T19:56:10.100Z,26.60
2023-05-22T19:58:39.743Z,26.60
2023-05-22T20:01:09.528Z,26.60
2023-05-22T20:03:39.490Z,26.60
2023-05-22T20:06:09.517Z,26.60
2023-05-22T20:08:39.448Z,26.60
2023-05-22T20:11:09.765Z,26.60
2023-05-22T20:13:39.701Z,26.60
2023-05-22T20:16:13.495Z,26.60
2023-05-22T20:18:43.668Z,26.60
2023-05-22T20:21:13.469Z,26.60
2023-05-22T20:23:43.366Z,26.60
2023-05-22T20:26:13.023Z,26.60
2023-05-22T20:28:42.872Z,26.60
2023-05-22T20:31:12.659Z,26.60
2023-05-22T20:33:42.631Z,26.60
2023-05-22T20:36:12.511Z,26.60
2023-05-22T20:38:44.234Z,26.60
2023-05-22T20:41:14.656Z,26.60
2023-05-22T20:43:44.984Z,26.60
2023-05-22T20:46:14.845Z,26.60
2023-05-22T20:48:49.981Z,26.60
2023-05-22T20:51:22.854Z,26.60
2023-05-22T20:53:55.824Z,26.50
2023-05-22T20:56:26.540Z,26.50
2023-05-22T20:58:57.989Z,26.50
2023-05-22T21:01:27.810Z,26.50
2023-05-22T21:04:00.641Z,26.50
2023-05-22T21:06:30.456Z,26.40
2023-05-22T21:09:03.332Z,26.40
2023-05-22T21:11:33.200Z,26.30
2023-05-22T21:14:03.223Z,26.30
2023-05-22T21:16:33.430Z,26.30
2023-05-22T21:19:03.270Z,26.30
2023-05-22T21:21:33.176Z,26.30
2023-05-22T21:24:02.831Z,26.30
2023-05-22T21:26:32.712Z,26.30
2023-05-22T21:29:05.088Z,26.30
2023-05-22T21:31:35.822Z,26.30
2023-05-22T21:34:05.841Z,26.30
2023-05-22T21:36:35.529Z,26.30
2023-05-22T21:39:05.547Z,26.30
2023-05-22T21:41:35.458Z,26.30
2023-05-22T21:44:05.150Z,26.30
2023-05-22T21:46:35.021Z,26.30
2023-05-22T21:49:05.487Z,26.30
2023-05-22T21:51:35.336Z,26.30
2023-05-22T21:54:07.844Z,26.20
2023-05-22T21:56:37.783Z,26.20
2023-05-22T21:59:07.815Z,26.20
2023-05-22T22:01:37.666Z,26.10
2023-05-22T22:04:07.907Z,26.10
2023-05-22T22:06:39.618Z,26.10
2023-05-22T22:09:09.549Z,26.10
2023-05-22T22:11:39.262Z,26.10
2023-05-22T22:14:09.270Z,26.10
2023-05-22T22:16:39.635Z,26.20
2023-05-22T22:19:09.451Z,26.10
2023-05-22T22:21:39.551Z,26.10
2023-05-22T22:24:09.361Z,26.10
2023-05-22T22:26:39.227Z,26.00
2023-05-22T22:29:09.024Z,26.00
2023-05-22T22:31:38.963Z,25.90
2023-05-22T22:34:08.768Z,25.90
2023-05-22T22:36:38.492Z,25.80
2023-05-22T22:39:09.001Z,25.80
2023-05-22T22:41:38.766Z,25.70
2023-05-22T22:44:08.608Z,25.70
2023-05-22T22:46:38.534Z,25.70
2023-05-22T22:49:08.880Z,25.80
2023-05-22T22:51:39.508Z,25.80
2023-05-22T22:54:09.288Z,25.90
2023-05-22T22:56:39.106Z,25.90
2023-05-22T22:59:09.102Z,25.90
2023-05-22T23:01:38.891Z,26.00
2023-05-22T23:04:08.775Z,26.00
2023-05-22T23:06:38.656Z,26.00
2023-05-22T23:09:08.399Z,25.90
2023-05-22T23:11:41.330Z,25.90
2023-05-22T23:14:12.127Z,25.90
2023-05-22T23:16:42.703Z,25.90
2023-05-22T23:19:13.717Z,25.90
2023-05-22T23:21:43.601Z,26.00
2023-05-22T23:24:13.385Z,26.00
2023-05-22T23:26:42.943Z,26.00
2023-05-22T23:29:12.626Z,26.00
2023-05-22T23:31:42.431Z,26.00
2023-05-22T23:34:12.275Z,26.00
2023-05-22T23:36:42.977Z,26.00
2023-05-22T23:39:12.856Z,26.00
2023-05-22T23:41:43.959Z,26.00
2023-05-22T23:44:13.988Z,26.00
2023-05-22T23:46:45.160Z,26.00
2023-05-22T23:49:15.468Z,26.10
2023-05-22T23:51:45.291Z,26.00
2023-05-22T23:54:15.589Z,26.10
2023-05-22T23:56:45.835Z,26.10
2023-05-22T23:59:15.552Z,26.10
